sensor_id;sensor_type;location;lat;lon;timestamp;P1;durP1;ratioP1;P2;durP2;ratioP2
69714;SDS011;56981;53.532;49.398;2024-02-21T00:01:42;1.33;;;0.55;;
69714;SDS011;56981;53.532;49.398;2024-02-21T00:04:09;7.50;;;1.23;;
69714;SDS011;56981;53.532;49.398;2024-02-21T00:06:35;0.20;;;0.20;;
69714;SDS011;56981;53.532;49.398;2024-02-21T00:09:01;0.22;;;0.22;;
69714;SDS011;56981;53.532;49.398;2024-02-21T00:11:28;1.42;;;1.08;;
69714;SDS011;56981;53.532;49.398;2024-02-21T00:13:54;1.80;;;0.35;;
69714;SDS011;56981;53.532;49.398;2024-02-21T00:16:21;1.45;;;0.60;;
69714;SDS011;56981;53.532;49.398;2024-02-21T00:18:47;0.50;;;0.50;;
69714;SDS011;56981;53.532;49.398;2024-02-21T00:21:14;0.40;;;0.40;;
69714;SDS011;56981;53.532;49.398;2024-02-21T00:23:44;1.80;;;1.10;;
69714;SDS011;56981;53.532;49.398;2024-02-21T00:26:15;2.33;;;0.82;;
69714;SDS011;56981;53.532;49.398;2024-02-21T00:28:41;3.28;;;1.80;;
69714;SDS011;56981;53.532;49.398;2024-02-21T00:31:08;1.88;;;0.88;;
69714;SDS011;56981;53.532;49.398;2024-02-21T00:33:34;1.52;;;1.42;;
69714;SDS011;56981;53.532;49.398;2024-02-21T00:36:01;2.30;;;1.38;;
69714;SDS011;56981;53.532;49.398;2024-02-21T00:38:27;2.22;;;2.13;;
69714;SDS011;56981;53.532;49.398;2024-02-21T00:40:53;2.50;;;2.05;;
69714;SDS011;56981;53.532;49.398;2024-02-21T00:43:21;3.85;;;1.48;;
69714;SDS011;56981;53.532;49.398;2024-02-21T00:45:50;2.15;;;1.50;;
69714;SDS011;56981;53.532;49.398;2024-02-21T00:48:16;1.60;;;1.50;;
69714;SDS011;56981;53.532;49.398;2024-02-21T00:50:43;2.03;;;1.83;;
69714;SDS011;56981;53.532;49.398;2024-02-21T00:53:09;2.95;;;1.50;;
69714;SDS011;56981;53.532;49.398;2024-02-21T00:55:36;0.77;;;0.68;;
69714;SDS011;56981;53.532;49.398;2024-02-21T00:58:02;1.88;;;1.65;;
69714;SDS011;56981;53.532;49.398;2024-02-21T01:00:29;4.35;;;1.58;;
69714;SDS011;56981;53.532;49.398;2024-02-21T01:02:55;3.53;;;2.70;;
69714;SDS011;56981;53.532;49.398;2024-02-21T01:05:22;2.55;;;1.35;;
69714;SDS011;56981;53.532;49.398;2024-02-21T01:07:48;1.35;;;0.80;;
69714;SDS011;56981;53.532;49.398;2024-02-21T01:10:15;1.45;;;0.90;;
69714;SDS011;56981;53.532;49.398;2024-02-21T01:12:42;4.57;;;1.52;;
69714;SDS011;56981;53.532;49.398;2024-02-21T01:15:09;0.10;;;0.10;;
69714;SDS011;56981;53.532;49.398;2024-02-21T01:17:36;1.17;;;1.13;;
69714;SDS011;56981;53.532;49.398;2024-02-21T01:20:02;2.08;;;0.77;;
69714;SDS011;56981;53.532;49.398;2024-02-21T01:22:31;1.52;;;1.42;;
69714;SDS011;56981;53.532;49.398;2024-02-21T01:24:57;0.47;;;0.47;;
69714;SDS011;56981;53.532;49.398;2024-02-21T01:27:23;1.08;;;1.02;;
69714;SDS011;56981;53.532;49.398;2024-02-21T01:29:50;3.67;;;2.25;;
69714;SDS011;56981;53.532;49.398;2024-02-21T01:32:16;1.98;;;1.27;;
69714;SDS011;56981;53.532;49.398;2024-02-21T01:34:43;2.88;;;1.60;;
69714;SDS011;56981;53.532;49.398;2024-02-21T01:37:09;1.70;;;1.60;;
69714;SDS011;56981;53.532;49.398;2024-02-21T01:39:36;1.17;;;0.98;;
69714;SDS011;56981;53.532;49.398;2024-02-21T01:42:03;1.90;;;0.95;;
69714;SDS011;56981;53.532;49.398;2024-02-21T01:44:29;2.28;;;1.48;;
69714;SDS011;56981;53.532;49.398;2024-02-21T01:46:56;3.97;;;1.73;;
69714;SDS011;56981;53.532;49.398;2024-02-21T01:49:23;3.15;;;1.55;;
69714;SDS011;56981;53.532;49.398;2024-02-21T01:51:50;1.75;;;1.65;;
69714;SDS011;56981;53.532;49.398;2024-02-21T01:54:17;2.08;;;1.13;;
69714;SDS011;56981;53.532;49.398;2024-02-21T01:56:44;3.17;;;0.45;;
69714;SDS011;56981;53.532;49.398;2024-02-21T01:59:12;0.55;;;0.28;;
69714;SDS011;56981;53.532;49.398;2024-02-21T02:01:39;2.97;;;1.35;;
69714;SDS011;56981;53.532;49.398;2024-02-21T02:04:06;8.82;;;1.67;;
69714;SDS011;56981;53.532;49.398;2024-02-21T02:06:33;0.20;;;0.20;;
69714;SDS011;56981;53.532;49.398;2024-02-21T02:09:00;0.38;;;0.38;;
69714;SDS011;56981;53.532;49.398;2024-02-21T02:11:26;0.47;;;0.47;;
69714;SDS011;56981;53.532;49.398;2024-02-21T02:13:53;0.15;;;0.15;;
69714;SDS011;56981;53.532;49.398;2024-02-21T02:16:20;1.85;;;1.05;;
69714;SDS011;56981;53.532;49.398;2024-02-21T02:18:46;0.30;;;0.30;;
69714;SDS011;56981;53.532;49.398;2024-02-21T02:21:23;0.10;;;0.10;;
69714;SDS011;56981;53.532;49.398;2024-02-21T02:23:53;0.93;;;0.50;;
69714;SDS011;56981;53.532;49.398;2024-02-21T02:26:19;0.45;;;0.45;;
69714;SDS011;56981;53.532;49.398;2024-02-21T02:28:46;0.55;;;0.55;;
69714;SDS011;56981;53.532;49.398;2024-02-21T02:31:12;1.52;;;1.50;;
69714;SDS011;56981;53.532;49.398;2024-02-21T02:33:39;0.43;;;0.43;;
69714;SDS011;56981;53.532;49.398;2024-02-21T02:36:05;0.63;;;0.63;;
69714;SDS011;56981;53.532;49.398;2024-02-21T02:38:31;3.13;;;1.33;;
69714;SDS011;56981;53.532;49.398;2024-02-21T02:40:58;0.63;;;0.63;;
69714;SDS011;56981;53.532;49.398;2024-02-21T02:43:24;0.20;;;0.20;;
69714;SDS011;56981;53.532;49.398;2024-02-21T02:45:50;1.88;;;0.60;;
69714;SDS011;56981;53.532;49.398;2024-02-21T02:48:17;0.30;;;0.30;;
69714;SDS011;56981;53.532;49.398;2024-02-21T02:50:45;0.50;;;0.50;;
69714;SDS011;56981;53.532;49.398;2024-02-21T02:53:12;0.75;;;0.75;;
69714;SDS011;56981;53.532;49.398;2024-02-21T02:55:39;0.60;;;0.50;;
69714;SDS011;56981;53.532;49.398;2024-02-21T02:58:05;0.25;;;0.22;;
69714;SDS011;56981;53.532;49.398;2024-02-21T03:00:32;0.77;;;0.77;;
69714;SDS011;56981;53.532;49.398;2024-02-21T03:03:01;0.00;;;0.00;;
69714;SDS011;56981;53.532;49.398;2024-02-21T03:05:31;2.65;;;2.45;;
69714;SDS011;56981;53.532;49.398;2024-02-21T03:07:57;0.10;;;0.10;;
69714;SDS011;56981;53.532;49.398;2024-02-21T03:10:25;1.77;;;0.85;;
69714;SDS011;56981;53.532;49.398;2024-02-21T03:12:51;1.00;;;0.80;;
69714;SDS011;56981;53.532;49.398;2024-02-21T03:15:19;0.75;;;0.75;;
69714;SDS011;56981;53.532;49.398;2024-02-21T03:17:45;5.68;;;0.65;;
69714;SDS011;56981;53.532;49.398;2024-02-21T03:20:12;2.10;;;1.15;;
69714;SDS011;56981;53.532;49.398;2024-02-21T03:22:39;1.02;;;0.47;;
69714;SDS011;56981;53.532;49.398;2024-02-21T03:25:06;0.50;;;0.50;;
69714;SDS011;56981;53.532;49.398;2024-02-21T03:27:34;2.65;;;1.02;;
69714;SDS011;56981;53.532;49.398;2024-02-21T03:30:00;1.20;;;1.20;;
69714;SDS011;56981;53.532;49.398;2024-02-21T03:32:27;1.10;;;0.60;;
69714;SDS011;56981;53.532;49.398;2024-02-21T03:34:57;0.85;;;0.85;;
69714;SDS011;56981;53.532;49.398;2024-02-21T03:37:23;2.40;;;1.27;;
69714;SDS011;56981;53.532;49.398;2024-02-21T03:39:49;4.07;;;3.03;;
69714;SDS011;56981;53.532;49.398;2024-02-21T03:42:15;1.13;;;0.75;;
69714;SDS011;56981;53.532;49.398;2024-02-21T03:44:41;0.75;;;0.35;;
69714;SDS011;56981;53.532;49.398;2024-02-21T03:47:07;0.22;;;0.10;;
69714;SDS011;56981;53.532;49.398;2024-02-21T03:49:36;1.00;;;0.28;;
69714;SDS011;56981;53.532;49.398;2024-02-21T03:52:03;0.32;;;0.32;;
69714;SDS011;56981;53.532;49.398;2024-02-21T03:54:29;0.77;;;0.20;;
69714;SDS011;56981;53.532;49.398;2024-02-21T03:56:56;0.30;;;0.30;;
69714;SDS011;56981;53.532;49.398;2024-02-21T03:59:22;0.13;;;0.13;;
69714;SDS011;56981;53.532;49.398;2024-02-21T04:01:52;1.30;;;0.13;;
69714;SDS011;56981;53.532;49.398;2024-02-21T04:04:18;0.15;;;0.15;;
69714;SDS011;56981;53.532;49.398;2024-02-21T04:09:14;0.52;;;0.43;;
69714;SDS011;56981;53.532;49.398;2024-02-21T04:11:41;0.30;;;0.30;;
69714;SDS011;56981;53.532;49.398;2024-02-21T04:14:07;0.47;;;0.47;;
69714;SDS011;56981;53.532;49.398;2024-02-21T04:16:34;0.90;;;0.55;;
69714;SDS011;56981;53.532;49.398;2024-02-21T04:19:00;3.05;;;1.10;;
69714;SDS011;56981;53.532;49.398;2024-02-21T04:21:27;1.55;;;1.25;;
69714;SDS011;56981;53.532;49.398;2024-02-21T04:23:54;1.85;;;0.57;;
69714;SDS011;56981;53.532;49.398;2024-02-21T04:26:21;0.50;;;0.50;;
69714;SDS011;56981;53.532;49.398;2024-02-21T04:28:47;0.95;;;0.90;;
69714;SDS011;56981;53.532;49.398;2024-02-21T04:31:14;0.32;;;0.32;;
69714;SDS011;56981;53.532;49.398;2024-02-21T04:33:40;2.38;;;1.80;;
69714;SDS011;56981;53.532;49.398;2024-02-21T04:36:06;0.43;;;0.30;;
69714;SDS011;56981;53.532;49.398;2024-02-21T04:38:32;1.38;;;1.38;;
69714;SDS011;56981;53.532;49.398;2024-02-21T04:40:59;0.98;;;0.88;;
69714;SDS011;56981;53.532;49.398;2024-02-21T04:43:26;3.00;;;2.35;;
69714;SDS011;56981;53.532;49.398;2024-02-21T04:45:52;8.90;;;2.45;;
69714;SDS011;56981;53.532;49.398;2024-02-21T04:48:19;3.17;;;2.25;;
69714;SDS011;56981;53.532;49.398;2024-02-21T04:50:46;3.08;;;2.53;;
69714;SDS011;56981;53.532;49.398;2024-02-21T04:53:12;0.82;;;0.82;;
69714;SDS011;56981;53.532;49.398;2024-02-21T04:55:42;4.13;;;2.13;;
69714;SDS011;56981;53.532;49.398;2024-02-21T04:58:09;4.80;;;2.10;;
69714;SDS011;56981;53.532;49.398;2024-02-21T05:00:35;2.55;;;1.30;;
69714;SDS011;56981;53.532;49.398;2024-02-21T05:03:01;7.50;;;3.03;;
69714;SDS011;56981;53.532;49.398;2024-02-21T05:05:28;8.23;;;3.72;;
69714;SDS011;56981;53.532;49.398;2024-02-21T05:07:55;6.68;;;3.65;;
69714;SDS011;56981;53.532;49.398;2024-02-21T05:10:21;4.80;;;2.38;;
69714;SDS011;56981;53.532;49.398;2024-02-21T05:12:47;9.40;;;4.07;;
69714;SDS011;56981;53.532;49.398;2024-02-21T05:15:14;6.88;;;3.85;;
69714;SDS011;56981;53.532;49.398;2024-02-21T05:17:40;5.68;;;3.75;;
69714;SDS011;56981;53.532;49.398;2024-02-21T05:20:08;9.10;;;3.40;;
69714;SDS011;56981;53.532;49.398;2024-02-21T05:22:34;7.60;;;4.47;;
69714;SDS011;56981;53.532;49.398;2024-02-21T05:25:01;6.70;;;3.25;;
69714;SDS011;56981;53.532;49.398;2024-02-21T05:27:27;7.05;;;3.65;;
69714;SDS011;56981;53.532;49.398;2024-02-21T05:29:54;5.15;;;2.22;;
69714;SDS011;56981;53.532;49.398;2024-02-21T05:32:20;6.88;;;2.17;;
69714;SDS011;56981;53.532;49.398;2024-02-21T05:34:49;4.07;;;2.95;;
69714;SDS011;56981;53.532;49.398;2024-02-21T05:37:16;5.20;;;2.53;;
69714;SDS011;56981;53.532;49.398;2024-02-21T05:39:43;4.00;;;2.75;;
69714;SDS011;56981;53.532;49.398;2024-02-21T05:42:10;7.63;;;4.03;;
69714;SDS011;56981;53.532;49.398;2024-02-21T05:44:36;5.75;;;2.28;;
69714;SDS011;56981;53.532;49.398;2024-02-21T05:47:04;5.43;;;2.65;;
69714;SDS011;56981;53.532;49.398;2024-02-21T05:49:36;2.67;;;2.10;;
69714;SDS011;56981;53.532;49.398;2024-02-21T05:52:03;4.57;;;2.53;;
69714;SDS011;56981;53.532;49.398;2024-02-21T05:54:32;5.63;;;2.88;;
69714;SDS011;56981;53.532;49.398;2024-02-21T05:56:58;5.03;;;2.42;;
69714;SDS011;56981;53.532;49.398;2024-02-21T05:59:25;4.70;;;2.50;;
69714;SDS011;56981;53.532;49.398;2024-02-21T06:01:55;5.15;;;2.30;;
69714;SDS011;56981;53.532;49.398;2024-02-21T06:04:23;3.92;;;2.20;;
69714;SDS011;56981;53.532;49.398;2024-02-21T06:06:51;4.63;;;2.45;;
69714;SDS011;56981;53.532;49.398;2024-02-21T06:09:17;1.52;;;1.38;;
69714;SDS011;56981;53.532;49.398;2024-02-21T06:11:43;2.90;;;1.85;;
69714;SDS011;56981;53.532;49.398;2024-02-21T06:14:12;3.50;;;2.10;;
69714;SDS011;56981;53.532;49.398;2024-02-21T06:16:38;4.82;;;2.15;;
69714;SDS011;56981;53.532;49.398;2024-02-21T06:19:05;6.57;;;2.47;;
69714;SDS011;56981;53.532;49.398;2024-02-21T06:21:31;5.40;;;2.83;;
69714;SDS011;56981;53.532;49.398;2024-02-21T06:24:00;5.30;;;2.75;;
69714;SDS011;56981;53.532;49.398;2024-02-21T06:26:26;4.72;;;1.88;;
69714;SDS011;56981;53.532;49.398;2024-02-21T06:28:53;3.72;;;1.80;;
69714;SDS011;56981;53.532;49.398;2024-02-21T06:31:20;4.63;;;2.03;;
69714;SDS011;56981;53.532;49.398;2024-02-21T06:33:46;4.28;;;2.00;;
69714;SDS011;56981;53.532;49.398;2024-02-21T06:36:13;2.72;;;1.90;;
69714;SDS011;56981;53.532;49.398;2024-02-21T06:38:39;3.55;;;1.75;;
69714;SDS011;56981;53.532;49.398;2024-02-21T06:41:06;3.38;;;2.00;;
69714;SDS011;56981;53.532;49.398;2024-02-21T06:43:33;3.20;;;1.52;;
69714;SDS011;56981;53.532;49.398;2024-02-21T06:45:59;3.17;;;1.83;;
69714;SDS011;56981;53.532;49.398;2024-02-21T06:48:25;3.80;;;1.65;;
69714;SDS011;56981;53.532;49.398;2024-02-21T06:50:52;3.75;;;2.30;;
69714;SDS011;56981;53.532;49.398;2024-02-21T06:53:19;3.80;;;1.88;;
69714;SDS011;56981;53.532;49.398;2024-02-21T06:55:45;3.17;;;1.83;;
69714;SDS011;56981;53.532;49.398;2024-02-21T06:58:12;3.58;;;2.05;;
69714;SDS011;56981;53.532;49.398;2024-02-21T07:00:39;5.60;;;2.13;;
69714;SDS011;56981;53.532;49.398;2024-02-21T07:03:06;3.63;;;1.83;;
69714;SDS011;56981;53.532;49.398;2024-02-21T07:05:32;3.05;;;1.75;;
69714;SDS011;56981;53.532;49.398;2024-02-21T07:07:59;2.38;;;1.70;;
69714;SDS011;56981;53.532;49.398;2024-02-21T07:10:25;3.30;;;1.60;;
69714;SDS011;56981;53.532;49.398;2024-02-21T07:12:53;2.28;;;1.60;;
69714;SDS011;56981;53.532;49.398;2024-02-21T07:15:20;2.13;;;1.65;;
69714;SDS011;56981;53.532;49.398;2024-02-21T07:17:46;3.55;;;2.33;;
69714;SDS011;56981;53.532;49.398;2024-02-21T07:20:13;2.03;;;1.33;;
69714;SDS011;56981;53.532;49.398;2024-02-21T07:22:40;2.50;;;1.90;;
69714;SDS011;56981;53.532;49.398;2024-02-21T07:25:06;3.03;;;1.77;;
69714;SDS011;56981;53.532;49.398;2024-02-21T07:27:33;3.95;;;2.30;;
69714;SDS011;56981;53.532;49.398;2024-02-21T07:29:59;3.85;;;1.80;;
69714;SDS011;56981;53.532;49.398;2024-02-21T07:32:26;3.40;;;1.67;;
69714;SDS011;56981;53.532;49.398;2024-02-21T07:34:52;3.92;;;2.10;;
69714;SDS011;56981;53.532;49.398;2024-02-21T07:37:19;2.00;;;1.30;;
69714;SDS011;56981;53.532;49.398;2024-02-21T07:39:45;3.38;;;1.85;;
69714;SDS011;56981;53.532;49.398;2024-02-21T07:42:12;2.83;;;1.23;;
69714;SDS011;56981;53.532;49.398;2024-02-21T07:44:38;1.58;;;1.23;;
69714;SDS011;56981;53.532;49.398;2024-02-21T07:47:05;3.55;;;2.00;;
69714;SDS011;56981;53.532;49.398;2024-02-21T07:49:33;1.45;;;1.05;;
69714;SDS011;56981;53.532;49.398;2024-02-21T07:52:00;1.38;;;0.80;;
69714;SDS011;56981;53.532;49.398;2024-02-21T07:54:26;2.78;;;1.45;;
69714;SDS011;56981;53.532;49.398;2024-02-21T07:56:53;2.63;;;1.67;;
69714;SDS011;56981;53.532;49.398;2024-02-21T07:59:19;2.67;;;1.45;;
69714;SDS011;56981;53.532;49.398;2024-02-21T08:01:46;3.97;;;1.77;;
69714;SDS011;56981;53.532;49.398;2024-02-21T08:04:12;1.67;;;1.35;;
69714;SDS011;56981;53.532;49.398;2024-02-21T08:06:38;3.47;;;1.95;;
69714;SDS011;56981;53.532;49.398;2024-02-21T08:09:05;4.50;;;1.92;;
69714;SDS011;56981;53.532;49.398;2024-02-21T08:11:32;2.15;;;1.30;;
69714;SDS011;56981;53.532;49.398;2024-02-21T08:13:58;3.25;;;1.33;;
69714;SDS011;56981;53.532;49.398;2024-02-21T08:16:25;4.68;;;2.15;;
69714;SDS011;56981;53.532;49.398;2024-02-21T08:18:52;2.05;;;1.70;;
69714;SDS011;56981;53.532;49.398;2024-02-21T08:21:19;3.35;;;1.85;;
69714;SDS011;56981;53.532;49.398;2024-02-21T08:23:45;2.28;;;1.35;;
69714;SDS011;56981;53.532;49.398;2024-02-21T08:26:11;2.78;;;1.83;;
69714;SDS011;56981;53.532;49.398;2024-02-21T08:28:38;3.55;;;1.58;;
69714;SDS011;56981;53.532;49.398;2024-02-21T08:31:04;1.65;;;1.40;;
69714;SDS011;56981;53.532;49.398;2024-02-21T08:33:34;2.28;;;1.08;;
69714;SDS011;56981;53.532;49.398;2024-02-21T08:36:00;4.97;;;1.50;;
69714;SDS011;56981;53.532;49.398;2024-02-21T08:38:27;3.20;;;1.75;;
69714;SDS011;56981;53.532;49.398;2024-02-21T08:40:53;3.58;;;2.45;;
69714;SDS011;56981;53.532;49.398;2024-02-21T08:43:20;3.65;;;1.90;;
69714;SDS011;56981;53.532;49.398;2024-02-21T08:45:47;4.68;;;2.15;;
69714;SDS011;56981;53.532;49.398;2024-02-21T08:48:13;8.73;;;3.65;;
69714;SDS011;56981;53.532;49.398;2024-02-21T08:50:41;4.05;;;1.75;;
69714;SDS011;56981;53.532;49.398;2024-02-21T08:53:07;2.35;;;1.38;;
69714;SDS011;56981;53.532;49.398;2024-02-21T08:55:33;1.75;;;1.02;;
69714;SDS011;56981;53.532;49.398;2024-02-21T08:58:01;3.17;;;1.70;;
69714;SDS011;56981;53.532;49.398;2024-02-21T09:03:28;2.25;;;1.88;;
69714;SDS011;56981;53.532;49.398;2024-02-21T09:05:54;2.55;;;1.42;;
69714;SDS011;56981;53.532;49.398;2024-02-21T09:08:21;3.58;;;1.67;;
69714;SDS011;56981;53.532;49.398;2024-02-21T09:10:47;2.20;;;1.15;;
69714;SDS011;56981;53.532;49.398;2024-02-21T09:13:14;4.18;;;1.60;;
69714;SDS011;56981;53.532;49.398;2024-02-21T09:15:40;3.90;;;1.95;;
69714;SDS011;56981;53.532;49.398;2024-02-21T09:18:11;2.95;;;1.60;;
69714;SDS011;56981;53.532;49.398;2024-02-21T09:20:38;5.40;;;2.67;;
69714;SDS011;56981;53.532;49.398;2024-02-21T09:23:04;3.47;;;1.63;;
69714;SDS011;56981;53.532;49.398;2024-02-21T09:25:30;2.30;;;1.45;;
69714;SDS011;56981;53.532;49.398;2024-02-21T09:27:57;2.58;;;1.42;;
69714;SDS011;56981;53.532;49.398;2024-02-21T09:30:24;7.85;;;2.08;;
69714;SDS011;56981;53.532;49.398;2024-02-21T09:32:50;6.20;;;1.40;;
69714;SDS011;56981;53.532;49.398;2024-02-21T09:35:17;1.48;;;1.20;;
69714;SDS011;56981;53.532;49.398;2024-02-21T09:37:43;2.83;;;2.15;;
69714;SDS011;56981;53.532;49.398;2024-02-21T09:40:10;2.38;;;1.20;;
69714;SDS011;56981;53.532;49.398;2024-02-21T09:47:55;1.52;;;1.02;;
69714;SDS011;56981;53.532;49.398;2024-02-21T09:50:48;2.13;;;1.30;;
69714;SDS011;56981;53.532;49.398;2024-02-21T09:53:16;3.15;;;1.23;;
69714;SDS011;56981;53.532;49.398;2024-02-21T09:55:44;2.80;;;1.42;;
69714;SDS011;56981;53.532;49.398;2024-02-21T09:58:12;1.88;;;0.98;;
69714;SDS011;56981;53.532;49.398;2024-02-21T10:00:39;3.60;;;1.48;;
69714;SDS011;56981;53.532;49.398;2024-02-21T10:03:05;3.67;;;1.55;;
69714;SDS011;56981;53.532;49.398;2024-02-21T10:05:33;1.88;;;0.82;;
69714;SDS011;56981;53.532;49.398;2024-02-21T10:08:03;2.85;;;1.10;;
69714;SDS011;56981;53.532;49.398;2024-02-21T10:10:44;3.85;;;1.58;;
69714;SDS011;56981;53.532;49.398;2024-02-21T10:13:27;3.67;;;1.70;;
69714;SDS011;56981;53.532;49.398;2024-02-21T10:16:05;2.83;;;1.40;;
69714;SDS011;56981;53.532;49.398;2024-02-21T10:18:33;10.90;;;1.45;;
69714;SDS011;56981;53.532;49.398;2024-02-21T10:21:04;1.33;;;1.23;;
69714;SDS011;56981;53.532;49.398;2024-02-21T10:23:51;1.80;;;0.82;;
69714;SDS011;56981;53.532;49.398;2024-02-21T10:26:18;0.95;;;0.75;;
69714;SDS011;56981;53.532;49.398;2024-02-21T10:28:46;3.30;;;1.45;;
69714;SDS011;56981;53.532;49.398;2024-02-21T10:31:24;2.50;;;1.30;;
69714;SDS011;56981;53.532;49.398;2024-02-21T10:33:58;0.88;;;0.80;;
69714;SDS011;56981;53.532;49.398;2024-02-21T10:36:31;0.80;;;0.65;;
69714;SDS011;56981;53.532;49.398;2024-02-21T10:38:57;2.53;;;1.00;;
69714;SDS011;56981;53.532;49.398;2024-02-21T10:41:24;2.63;;;1.13;;
69714;SDS011;56981;53.532;49.398;2024-02-21T10:43:51;4.18;;;1.58;;
69714;SDS011;56981;53.532;49.398;2024-02-21T10:46:20;2.63;;;1.35;;
69714;SDS011;56981;53.532;49.398;2024-02-21T10:48:48;6.82;;;1.77;;
69714;SDS011;56981;53.532;49.398;2024-02-21T10:51:33;1.30;;;1.10;;
69714;SDS011;56981;53.532;49.398;2024-02-21T10:54:09;1.55;;;0.80;;
69714;SDS011;56981;53.532;49.398;2024-02-21T10:56:45;4.10;;;1.27;;
69714;SDS011;56981;53.532;49.398;2024-02-21T10:59:16;2.08;;;0.77;;
69714;SDS011;56981;53.532;49.398;2024-02-21T11:01:45;3.03;;;1.85;;
69714;SDS011;56981;53.532;49.398;2024-02-21T11:04:11;1.67;;;1.30;;
69714;SDS011;56981;53.532;49.398;2024-02-21T11:06:38;1.80;;;1.05;;
69714;SDS011;56981;53.532;49.398;2024-02-21T11:09:09;3.33;;;1.10;;
69714;SDS011;56981;53.532;49.398;2024-02-21T11:11:37;0.95;;;0.88;;
69714;SDS011;56981;53.532;49.398;2024-02-21T11:14:11;1.20;;;0.82;;
69714;SDS011;56981;53.532;49.398;2024-02-21T11:16:44;0.68;;;0.68;;
69714;SDS011;56981;53.532;49.398;2024-02-21T11:19:21;2.47;;;0.70;;
69714;SDS011;56981;53.532;49.398;2024-02-21T11:21:50;1.30;;;0.98;;
69714;SDS011;56981;53.532;49.398;2024-02-21T11:24:27;2.00;;;0.60;;
69714;SDS011;56981;53.532;49.398;2024-02-21T11:29:48;1.42;;;0.63;;
69714;SDS011;56981;53.532;49.398;2024-02-21T11:32:17;0.93;;;0.80;;
69714;SDS011;56981;53.532;49.398;2024-02-21T11:35:00;2.88;;;0.90;;
69714;SDS011;56981;53.532;49.398;2024-02-21T11:37:29;0.90;;;0.45;;
69714;SDS011;56981;53.532;49.398;2024-02-21T11:39:59;1.10;;;0.68;;
69714;SDS011;56981;53.532;49.398;2024-02-21T11:42:26;2.15;;;0.80;;
69714;SDS011;56981;53.532;49.398;2024-02-21T11:44:54;1.20;;;0.90;;
69714;SDS011;56981;53.532;49.398;2024-02-21T11:47:24;4.18;;;1.50;;
69714;SDS011;56981;53.532;49.398;2024-02-21T11:49:53;3.03;;;1.50;;
69714;SDS011;56981;53.532;49.398;2024-02-21T11:52:23;2.28;;;0.93;;
69714;SDS011;56981;53.532;49.398;2024-02-21T11:54:54;3.92;;;1.77;;
69714;SDS011;56981;53.532;49.398;2024-02-21T11:57:22;3.28;;;1.00;;
69714;SDS011;56981;53.532;49.398;2024-02-21T11:59:50;2.45;;;1.23;;
69714;SDS011;56981;53.532;49.398;2024-02-21T12:02:18;3.40;;;1.83;;
69714;SDS011;56981;53.532;49.398;2024-02-21T12:04:45;1.55;;;0.68;;
69714;SDS011;56981;53.532;49.398;2024-02-21T12:07:12;2.33;;;1.95;;
69714;SDS011;56981;53.532;49.398;2024-02-21T12:09:38;2.90;;;1.08;;
69714;SDS011;56981;53.532;49.398;2024-02-21T12:12:08;1.55;;;0.85;;
69714;SDS011;56981;53.532;49.398;2024-02-21T12:14:35;1.92;;;1.20;;
69714;SDS011;56981;53.532;49.398;2024-02-21T12:17:02;1.58;;;1.48;;
69714;SDS011;56981;53.532;49.398;2024-02-21T12:19:32;3.60;;;1.55;;
69714;SDS011;56981;53.532;49.398;2024-02-21T12:22:00;2.75;;;1.00;;
69714;SDS011;56981;53.532;49.398;2024-02-21T12:24:27;1.98;;;1.10;;
69714;SDS011;56981;53.532;49.398;2024-02-21T12:26:55;3.67;;;1.15;;
69714;SDS011;56981;53.532;49.398;2024-02-21T12:29:22;1.27;;;1.02;;
69714;SDS011;56981;53.532;49.398;2024-02-21T12:31:53;3.03;;;1.38;;
69714;SDS011;56981;53.532;49.398;2024-02-21T12:34:20;1.73;;;1.58;;
69714;SDS011;56981;53.532;49.398;2024-02-21T12:36:48;2.35;;;1.67;;
69714;SDS011;56981;53.532;49.398;2024-02-21T12:39:14;4.28;;;1.88;;
69714;SDS011;56981;53.532;49.398;2024-02-21T12:41:42;4.70;;;1.38;;
69714;SDS011;56981;53.532;49.398;2024-02-21T12:44:10;4.45;;;1.70;;
69714;SDS011;56981;53.532;49.398;2024-02-21T12:46:39;1.30;;;1.20;;
69714;SDS011;56981;53.532;49.398;2024-02-21T12:49:06;1.95;;;1.25;;
69714;SDS011;56981;53.532;49.398;2024-02-21T12:51:35;2.33;;;2.15;;
69714;SDS011;56981;53.532;49.398;2024-02-21T12:54:03;1.42;;;1.17;;
69714;SDS011;56981;53.532;49.398;2024-02-21T12:56:30;5.45;;;3.22;;
69714;SDS011;56981;53.532;49.398;2024-02-21T12:58:57;2.20;;;1.15;;
69714;SDS011;56981;53.532;49.398;2024-02-21T13:01:24;3.72;;;0.55;;
69714;SDS011;56981;53.532;49.398;2024-02-21T13:03:57;3.50;;;1.50;;
69714;SDS011;56981;53.532;49.398;2024-02-21T13:06:26;1.55;;;0.50;;
69714;SDS011;56981;53.532;49.398;2024-02-21T13:08:53;3.45;;;2.33;;
69714;SDS011;56981;53.532;49.398;2024-02-21T13:11:20;4.60;;;1.63;;
69714;SDS011;56981;53.532;49.398;2024-02-21T13:13:46;4.28;;;1.58;;
69714;SDS011;56981;53.532;49.398;2024-02-21T13:16:12;3.10;;;2.00;;
69714;SDS011;56981;53.532;49.398;2024-02-21T13:18:39;3.08;;;2.17;;
69714;SDS011;56981;53.532;49.398;2024-02-21T13:21:08;4.60;;;2.05;;
69714;SDS011;56981;53.532;49.398;2024-02-21T13:23:38;5.68;;;2.05;;
69714;SDS011;56981;53.532;49.398;2024-02-21T13:26:06;1.23;;;0.65;;
69714;SDS011;56981;53.532;49.398;2024-02-21T13:28:33;3.40;;;1.98;;
69714;SDS011;56981;53.532;49.398;2024-02-21T13:30:59;4.22;;;2.10;;
69714;SDS011;56981;53.532;49.398;2024-02-21T13:33:26;5.50;;;2.72;;
69714;SDS011;56981;53.532;49.398;2024-02-21T13:35:54;4.10;;;1.92;;
69714;SDS011;56981;53.532;49.398;2024-02-21T13:38:21;4.07;;;2.40;;
69714;SDS011;56981;53.532;49.398;2024-02-21T13:40:47;6.07;;;2.65;;
69714;SDS011;56981;53.532;49.398;2024-02-21T13:43:14;3.15;;;1.85;;
69714;SDS011;56981;53.532;49.398;2024-02-21T13:45:40;4.82;;;2.55;;
69714;SDS011;56981;53.532;49.398;2024-02-21T13:48:20;5.28;;;1.98;;
69714;SDS011;56981;53.532;49.398;2024-02-21T13:50:47;6.05;;;2.38;;
69714;SDS011;56981;53.532;49.398;2024-02-21T13:53:13;6.45;;;2.00;;
69714;SDS011;56981;53.532;49.398;2024-02-21T13:55:40;1.63;;;1.52;;
69714;SDS011;56981;53.532;49.398;2024-02-21T13:58:09;1.92;;;0.93;;
69714;SDS011;56981;53.532;49.398;2024-02-21T14:00:35;5.80;;;2.30;;
69714;SDS011;56981;53.532;49.398;2024-02-21T14:03:02;3.75;;;1.60;;
69714;SDS011;56981;53.532;49.398;2024-02-21T14:05:29;6.80;;;2.33;;
69714;SDS011;56981;53.532;49.398;2024-02-21T14:07:56;5.45;;;2.00;;
69714;SDS011;56981;53.532;49.398;2024-02-21T14:10:22;4.28;;;2.72;;
69714;SDS011;56981;53.532;49.398;2024-02-21T14:12:49;4.90;;;2.15;;
69714;SDS011;56981;53.532;49.398;2024-02-21T14:15:17;5.18;;;2.33;;
69714;SDS011;56981;53.532;49.398;2024-02-21T14:17:44;4.32;;;3.00;;
69714;SDS011;56981;53.532;49.398;2024-02-21T14:20:12;2.05;;;1.50;;
69714;SDS011;56981;53.532;49.398;2024-02-21T14:22:40;3.95;;;1.55;;
69714;SDS011;56981;53.532;49.398;2024-02-21T14:25:07;5.32;;;1.65;;
69714;SDS011;56981;53.532;49.398;2024-02-21T14:27:34;3.97;;;2.17;;
69714;SDS011;56981;53.532;49.398;2024-02-21T14:30:02;3.55;;;2.08;;
69714;SDS011;56981;53.532;49.398;2024-02-21T14:32:30;5.80;;;2.28;;
69714;SDS011;56981;53.532;49.398;2024-02-21T14:35:05;2.25;;;1.92;;
69714;SDS011;56981;53.532;49.398;2024-02-21T14:37:32;6.18;;;2.90;;
69714;SDS011;56981;53.532;49.398;2024-02-21T14:39:59;3.55;;;1.92;;
69714;SDS011;56981;53.532;49.398;2024-02-21T14:42:26;2.95;;;2.03;;
69714;SDS011;56981;53.532;49.398;2024-02-21T14:44:53;6.80;;;2.40;;
69714;SDS011;56981;53.532;49.398;2024-02-21T14:47:19;1.75;;;1.63;;
69714;SDS011;56981;53.532;49.398;2024-02-21T14:49:46;2.15;;;1.23;;